sensor_id;sensor_type;location;lat;lon;timestamp;P1;durP1;ratioP1;P2;durP2;ratioP2
67278;SDS011;54193;53.746;10.058;2023-02-15T00:01:07;111.32;;;25.00;;
67278;SDS011;54193;53.746;10.058;2023-02-15T00:03:53;109.63;;;25.83;;
67278;SDS011;54193;53.746;10.058;2023-02-15T00:06:39;115.68;;;27.30;;
67278;SDS011;54193;53.746;10.058;2023-02-15T00:09:25;89.72;;;21.88;;
67278;SDS011;54193;53.746;10.058;2023-02-15T00:12:11;90.80;;;21.27;;
67278;SDS011;54193;53.746;10.058;2023-02-15T00:14:56;48.47;;;14.07;;
67278;SDS011;54193;53.746;10.058;2023-02-15T00:17:42;95.18;;;23.20;;
67278;SDS011;54193;53.746;10.058;2023-02-15T00:20:27;100.35;;;24.60;;
67278;SDS011;54193;53.746;10.058;2023-02-15T00:23:13;114.15;;;25.98;;
67278;SDS011;54193;53.746;10.058;2023-02-15T00:26:11;108.75;;;22.30;;
67278;SDS011;54193;53.746;10.058;2023-02-15T00:28:58;44.78;;;12.05;;
67278;SDS011;54193;53.746;10.058;2023-02-15T00:31:44;119.10;;;26.87;;
67278;SDS011;54193;53.746;10.058;2023-02-15T00:34:30;113.93;;;27.33;;
67278;SDS011;54193;53.746;10.058;2023-02-15T00:37:15;139.23;;;28.55;;
67278;SDS011;54193;53.746;10.058;2023-02-15T00:40:01;145.33;;;25.57;;
67278;SDS011;54193;53.746;10.058;2023-02-15T00:42:47;115.28;;;24.30;;
67278;SDS011;54193;53.746;10.058;2023-02-15T00:45:32;130.52;;;28.48;;
67278;SDS011;54193;53.746;10.058;2023-02-15T00:48:18;126.00;;;25.38;;
67278;SDS011;54193;53.746;10.058;2023-02-15T00:51:04;127.32;;;28.80;;
67278;SDS011;54193;53.746;10.058;2023-02-15T00:53:50;103.72;;;21.88;;
67278;SDS011;54193;53.746;10.058;2023-02-15T00:56:37;118.28;;;26.23;;
67278;SDS011;54193;53.746;10.058;2023-02-15T00:59:22;81.63;;;19.57;;
67278;SDS011;54193;53.746;10.058;2023-02-15T01:02:08;110.07;;;23.00;;
67278;SDS011;54193;53.746;10.058;2023-02-15T01:04:54;108.15;;;22.80;;
67278;SDS011;54193;53.746;10.058;2023-02-15T01:07:39;88.43;;;21.30;;
67278;SDS011;54193;53.746;10.058;2023-02-15T01:10:25;118.30;;;25.45;;
67278;SDS011;54193;53.746;10.058;2023-02-15T01:13:11;105.10;;;20.13;;
67278;SDS011;54193;53.746;10.058;2023-02-15T01:15:57;109.20;;;24.48;;
67278;SDS011;54193;53.746;10.058;2023-02-15T01:18:43;108.88;;;20.25;;
67278;SDS011;54193;53.746;10.058;2023-02-15T01:21:29;128.23;;;26.73;;
67278;SDS011;54193;53.746;10.058;2023-02-15T01:24:15;98.88;;;21.33;;
67278;SDS011;54193;53.746;10.058;2023-02-15T01:27:00;114.57;;;23.17;;
67278;SDS011;54193;53.746;10.058;2023-02-15T01:29:46;84.63;;;20.33;;
67278;SDS011;54193;53.746;10.058;2023-02-15T01:32:32;136.38;;;27.95;;
67278;SDS011;54193;53.746;10.058;2023-02-15T01:35:18;137.97;;;28.77;;
67278;SDS011;54193;53.746;10.058;2023-02-15T01:38:04;142.82;;;28.20;;
67278;SDS011;54193;53.746;10.058;2023-02-15T01:40:53;144.63;;;27.38;;
67278;SDS011;54193;53.746;10.058;2023-02-15T01:44:00;98.88;;;19.75;;
67278;SDS011;54193;53.746;10.058;2023-02-15T01:46:48;101.25;;;21.30;;
67278;SDS011;54193;53.746;10.058;2023-02-15T01:49:38;148.57;;;27.75;;
67278;SDS011;54193;53.746;10.058;2023-02-15T01:52:27;142.55;;;29.25;;
67278;SDS011;54193;53.746;10.058;2023-02-15T01:55:14;138.30;;;28.10;;
67278;SDS011;54193;53.746;10.058;2023-02-15T01:58:00;141.80;;;28.98;;
67278;SDS011;54193;53.746;10.058;2023-02-15T02:00:46;134.18;;;27.70;;
67278;SDS011;54193;53.746;10.058;2023-02-15T02:06:55;127.10;;;26.05;;
67278;SDS011;54193;53.746;10.058;2023-02-15T02:09:43;131.00;;;25.70;;
67278;SDS011;54193;53.746;10.058;2023-02-15T02:12:29;84.63;;;16.83;;
67278;SDS011;54193;53.746;10.058;2023-02-15T02:15:16;114.35;;;24.17;;
67278;SDS011;54193;53.746;10.058;2023-02-15T02:27:41;134.43;;;26.48;;
67278;SDS011;54193;53.746;10.058;2023-02-15T02:46:10;127.03;;;24.08;;
67278;SDS011;54193;53.746;10.058;2023-02-15T02:49:00;110.57;;;21.52;;
67278;SDS011;54193;53.746;10.058;2023-02-15T02:51:46;152.18;;;27.00;;
67278;SDS011;54193;53.746;10.058;2023-02-15T02:54:33;89.20;;;18.50;;
67278;SDS011;54193;53.746;10.058;2023-02-15T02:57:20;152.02;;;26.42;;
67278;SDS011;54193;53.746;10.058;2023-02-15T03:00:09;215.93;;;30.38;;
67278;SDS011;54193;53.746;10.058;2023-02-15T03:02:59;153.63;;;27.97;;
67278;SDS011;54193;53.746;10.058;2023-02-15T03:05:51;105.28;;;20.05;;
67278;SDS011;54193;53.746;10.058;2023-02-15T03:08:44;91.85;;;16.52;;
67278;SDS011;54193;53.746;10.058;2023-02-15T03:11:34;151.10;;;28.08;;
67278;SDS011;54193;53.746;10.058;2023-02-15T03:14:19;123.88;;;23.52;;
67278;SDS011;54193;53.746;10.058;2023-02-15T03:17:05;157.98;;;27.10;;
67278;SDS011;54193;53.746;10.058;2023-02-15T03:19:54;148.38;;;25.80;;
67278;SDS011;54193;53.746;10.058;2023-02-15T03:22:44;151.17;;;27.87;;
67278;SDS011;54193;53.746;10.058;2023-02-15T03:25:36;135.85;;;23.38;;
67278;SDS011;54193;53.746;10.058;2023-02-15T03:28:33;129.38;;;23.10;;
67278;SDS011;54193;53.746;10.058;2023-02-15T03:31:24;157.20;;;25.23;;
67278;SDS011;54193;53.746;10.058;2023-02-15T03:34:14;117.65;;;20.60;;
67278;SDS011;54193;53.746;10.058;2023-02-15T03:37:07;162.68;;;26.13;;
67278;SDS011;54193;53.746;10.058;2023-02-15T03:39:59;176.70;;;25.20;;
67278;SDS011;54193;53.746;10.058;2023-02-15T03:46:40;103.25;;;19.10;;
67278;SDS011;54193;53.746;10.058;2023-02-15T03:49:37;124.03;;;22.77;;
67278;SDS011;54193;53.746;10.058;2023-02-15T03:52:27;109.93;;;21.00;;
67278;SDS011;54193;53.746;10.058;2023-02-15T03:55:14;143.98;;;26.55;;
67278;SDS011;54193;53.746;10.058;2023-02-15T03:58:00;148.70;;;26.45;;
67278;SDS011;54193;53.746;10.058;2023-02-15T04:01:15;143.67;;;25.87;;
67278;SDS011;54193;53.746;10.058;2023-02-15T04:04:34;131.27;;;24.02;;
67278;SDS011;54193;53.746;10.058;2023-02-15T04:07:22;79.90;;;16.98;;
67278;SDS011;54193;53.746;10.058;2023-02-15T04:10:08;152.40;;;25.10;;
67278;SDS011;54193;53.746;10.058;2023-02-15T04:13:12;142.80;;;26.42;;
67278;SDS011;54193;53.746;10.058;2023-02-15T04:15:58;167.80;;;28.73;;
67278;SDS011;54193;53.746;10.058;2023-02-15T04:18:50;152.75;;;26.98;;
67278;SDS011;54193;53.746;10.058;2023-02-15T04:21:56;209.20;;;29.97;;
67278;SDS011;54193;53.746;10.058;2023-02-15T04:25:00;136.93;;;25.52;;
67278;SDS011;54193;53.746;10.058;2023-02-15T04:27:54;175.27;;;27.85;;
67278;SDS011;54193;53.746;10.058;2023-02-15T04:30:40;148.47;;;24.67;;
67278;SDS011;54193;53.746;10.058;2023-02-15T04:33:26;112.18;;;20.70;;
67278;SDS011;54193;53.746;10.058;2023-02-15T04:36:11;134.30;;;23.35;;
67278;SDS011;54193;53.746;10.058;2023-02-15T04:38:57;126.20;;;22.30;;
67278;SDS011;54193;53.746;10.058;2023-02-15T04:41:43;113.20;;;20.55;;
67278;SDS011;54193;53.746;10.058;2023-02-15T04:44:29;206.90;;;29.63;;
67278;SDS011;54193;53.746;10.058;2023-02-15T04:47:14;101.40;;;19.00;;
67278;SDS011;54193;53.746;10.058;2023-02-15T04:50:00;146.70;;;25.00;;
67278;SDS011;54193;53.746;10.058;2023-02-15T04:52:46;306.77;;;33.78;;
67278;SDS011;54193;53.746;10.058;2023-02-15T04:55:31;166.40;;;26.27;;
67278;SDS011;54193;53.746;10.058;2023-02-15T04:58:17;160.50;;;26.70;;
67278;SDS011;54193;53.746;10.058;2023-02-15T05:01:03;145.82;;;25.52;;
67278;SDS011;54193;53.746;10.058;2023-02-15T05:03:48;151.80;;;26.17;;
67278;SDS011;54193;53.746;10.058;2023-02-15T05:06:34;154.85;;;25.67;;
67278;SDS011;54193;53.746;10.058;2023-02-15T05:09:20;159.50;;;25.92;;
67278;SDS011;54193;53.746;10.058;2023-02-15T05:12:05;144.57;;;25.50;;
67278;SDS011;54193;53.746;10.058;2023-02-15T05:14:51;147.25;;;25.88;;
67278;SDS011;54193;53.746;10.058;2023-02-15T05:17:37;121.10;;;20.87;;
67278;SDS011;54193;53.746;10.058;2023-02-15T05:20:23;68.03;;;14.52;;
67278;SDS011;54193;53.746;10.058;2023-02-15T05:23:08;110.60;;;19.77;;
67278;SDS011;54193;53.746;10.058;2023-02-15T05:25:54;127.30;;;21.83;;
67278;SDS011;54193;53.746;10.058;2023-02-15T05:28:58;81.45;;;14.60;;
67278;SDS011;54193;53.746;10.058;2023-02-15T05:31:44;96.20;;;17.73;;
67278;SDS011;54193;53.746;10.058;2023-02-15T05:34:32;58.13;;;10.80;;
67278;SDS011;54193;53.746;10.058;2023-02-15T05:37:17;119.05;;;22.48;;
67278;SDS011;54193;53.746;10.058;2023-02-15T05:40:03;115.15;;;20.88;;
67278;SDS011;54193;53.746;10.058;2023-02-15T05:42:49;121.70;;;22.98;;
67278;SDS011;54193;53.746;10.058;2023-02-15T05:45:36;91.93;;;17.47;;
67278;SDS011;54193;53.746;10.058;2023-02-15T05:48:22;173.05;;;25.25;;
67278;SDS011;54193;53.746;10.058;2023-02-15T05:51:10;104.78;;;16.45;;
67278;SDS011;54193;53.746;10.058;2023-02-15T05:53:58;110.97;;;19.70;;
67278;SDS011;54193;53.746;10.058;2023-02-15T05:56:44;78.82;;;15.60;;
67278;SDS011;54193;53.746;10.058;2023-02-15T05:59:29;172.00;;;25.58;;
67278;SDS011;54193;53.746;10.058;2023-02-15T06:02:15;149.93;;;23.80;;
67278;SDS011;54193;53.746;10.058;2023-02-15T06:05:00;331.38;;;32.78;;
67278;SDS011;54193;53.746;10.058;2023-02-15T06:07:48;193.43;;;26.92;;
67278;SDS011;54193;53.746;10.058;2023-02-15T06:10:34;268.20;;;30.90;;
67278;SDS011;54193;53.746;10.058;2023-02-15T06:13:19;140.77;;;22.33;;
67278;SDS011;54193;53.746;10.058;2023-02-15T06:16:05;343.05;;;34.08;;
67278;SDS011;54193;53.746;10.058;2023-02-15T06:18:52;152.07;;;24.42;;
67278;SDS011;54193;53.746;10.058;2023-02-15T06:21:37;139.43;;;24.20;;
67278;SDS011;54193;53.746;10.058;2023-02-15T06:24:23;145.65;;;25.27;;
67278;SDS011;54193;53.746;10.058;2023-02-15T06:27:09;139.35;;;24.77;;
67278;SDS011;54193;53.746;10.058;2023-02-15T06:29:55;131.27;;;23.52;;
67278;SDS011;54193;53.746;10.058;2023-02-15T06:32:40;127.13;;;22.80;;
67278;SDS011;54193;53.746;10.058;2023-02-15T06:35:26;106.72;;;19.90;;
67278;SDS011;54193;53.746;10.058;2023-02-15T06:38:12;119.53;;;21.38;;
67278;SDS011;54193;53.746;10.058;2023-02-15T06:40:58;139.30;;;22.73;;
67278;SDS011;54193;53.746;10.058;2023-02-15T06:43:43;54.45;;;11.55;;
67278;SDS011;54193;53.746;10.058;2023-02-15T06:46:29;108.25;;;19.92;;
67278;SDS011;54193;53.746;10.058;2023-02-15T06:49:14;100.40;;;19.93;;
67278;SDS011;54193;53.746;10.058;2023-02-15T06:52:00;119.70;;;20.10;;
67278;SDS011;54193;53.746;10.058;2023-02-15T06:54:46;52.00;;;11.77;;
67278;SDS011;54193;53.746;10.058;2023-02-15T06:57:31;92.35;;;17.23;;
67278;SDS011;54193;53.746;10.058;2023-02-15T07:00:18;118.63;;;19.65;;
67278;SDS011;54193;53.746;10.058;2023-02-15T07:03:04;126.07;;;22.08;;
67278;SDS011;54193;53.746;10.058;2023-02-15T07:05:53;64.90;;;13.05;;
67278;SDS011;54193;53.746;10.058;2023-02-15T07:08:40;95.67;;;18.00;;
67278;SDS011;54193;53.746;10.058;2023-02-15T07:11:25;56.63;;;11.18;;
67278;SDS011;54193;53.746;10.058;2023-02-15T07:14:29;116.53;;;21.55;;
67278;SDS011;54193;53.746;10.058;2023-02-15T07:17:15;126.03;;;22.83;;
67278;SDS011;54193;53.746;10.058;2023-02-15T07:20:04;116.80;;;21.70;;
67278;SDS011;54193;53.746;10.058;2023-02-15T07:22:53;118.10;;;22.05;;
67278;SDS011;54193;53.746;10.058;2023-02-15T07:25:38;126.78;;;22.40;;
67278;SDS011;54193;53.746;10.058;2023-02-15T07:28:24;114.13;;;21.20;;
67278;SDS011;54193;53.746;10.058;2023-02-15T07:31:10;82.90;;;15.70;;
67278;SDS011;54193;53.746;10.058;2023-02-15T07:33:55;59.28;;;12.25;;
67278;SDS011;54193;53.746;10.058;2023-02-15T07:36:41;85.67;;;18.30;;
67278;SDS011;54193;53.746;10.058;2023-02-15T07:39:29;96.30;;;19.55;;
67278;SDS011;54193;53.746;10.058;2023-02-15T07:42:14;108.70;;;22.80;;
67278;SDS011;54193;53.746;10.058;2023-02-15T07:45:00;122.60;;;22.80;;
67278;SDS011;54193;53.746;10.058;2023-02-15T07:47:46;124.40;;;21.52;;
67278;SDS011;54193;53.746;10.058;2023-02-15T07:50:32;78.50;;;16.73;;
67278;SDS011;54193;53.746;10.058;2023-02-15T07:53:17;107.07;;;20.42;;
67278;SDS011;54193;53.746;10.058;2023-02-15T07:56:04;88.00;;;16.90;;
67278;SDS011;54193;53.746;10.058;2023-02-15T07:58:51;83.35;;;17.33;;
67278;SDS011;54193;53.746;10.058;2023-02-15T08:01:38;94.00;;;18.83;;
67278;SDS011;54193;53.746;10.058;2023-02-15T08:04:24;36.83;;;10.27;;
67278;SDS011;54193;53.746;10.058;2023-02-15T08:07:09;92.78;;;17.73;;
67278;SDS011;54193;53.746;10.058;2023-02-15T08:09:55;78.32;;;15.50;;
67278;SDS011;54193;53.746;10.058;2023-02-15T08:12:41;108.83;;;22.93;;
67278;SDS011;54193;53.746;10.058;2023-02-15T08:15:26;47.70;;;11.32;;
67278;SDS011;54193;53.746;10.058;2023-02-15T08:18:12;73.45;;;15.63;;
67278;SDS011;54193;53.746;10.058;2023-02-15T08:20:58;63.65;;;12.45;;
67278;SDS011;54193;53.746;10.058;2023-02-15T08:23:43;82.22;;;17.17;;
67278;SDS011;54193;53.746;10.058;2023-02-15T08:26:29;49.47;;;13.35;;
67278;SDS011;54193;53.746;10.058;2023-02-15T08:29:17;38.63;;;9.55;;
67278;SDS011;54193;53.746;10.058;2023-02-15T08:32:11;64.37;;;15.20;;
67278;SDS011;54193;53.746;10.058;2023-02-15T08:34:57;51.58;;;12.35;;
67278;SDS011;54193;53.746;10.058;2023-02-15T08:37:43;55.80;;;12.30;;
67278;SDS011;54193;53.746;10.058;2023-02-15T08:40:30;26.17;;;8.47;;
67278;SDS011;54193;53.746;10.058;2023-02-15T08:43:16;48.40;;;12.55;;
67278;SDS011;54193;53.746;10.058;2023-02-15T08:46:02;85.78;;;15.90;;
67278;SDS011;54193;53.746;10.058;2023-02-15T08:48:47;65.97;;;14.07;;
67278;SDS011;54193;53.746;10.058;2023-02-15T08:51:34;87.97;;;16.55;;
67278;SDS011;54193;53.746;10.058;2023-02-15T08:54:22;63.40;;;14.55;;
67278;SDS011;54193;53.746;10.058;2023-02-15T08:57:07;91.90;;;19.20;;
67278;SDS011;54193;53.746;10.058;2023-02-15T08:59:53;88.63;;;17.80;;
67278;SDS011;54193;53.746;10.058;2023-02-15T09:02:40;91.13;;;19.10;;
67278;SDS011;54193;53.746;10.058;2023-02-15T09:05:25;86.30;;;18.83;;
67278;SDS011;54193;53.746;10.058;2023-02-15T09:08:11;101.83;;;21.40;;
67278;SDS011;54193;53.746;10.058;2023-02-15T09:11:07;85.05;;;18.73;;
67278;SDS011;54193;53.746;10.058;2023-02-15T09:13:59;88.20;;;16.83;;
67278;SDS011;54193;53.746;10.058;2023-02-15T09:16:47;85.43;;;19.05;;
67278;SDS011;54193;53.746;10.058;2023-02-15T09:19:36;80.38;;;19.15;;
67278;SDS011;54193;53.746;10.058;2023-02-15T09:22:22;84.38;;;18.30;;
67278;SDS011;54193;53.746;10.058;2023-02-15T09:25:08;79.22;;;18.33;;
67278;SDS011;54193;53.746;10.058;2023-02-15T09:27:53;114.83;;;23.10;;
67278;SDS011;54193;53.746;10.058;2023-02-15T09:30:39;89.50;;;19.17;;
67278;SDS011;54193;53.746;10.058;2023-02-15T09:33:25;139.80;;;23.50;;
67278;SDS011;54193;53.746;10.058;2023-02-15T09:36:15;96.50;;;20.87;;
67278;SDS011;54193;53.746;10.058;2023-02-15T09:39:06;62.40;;;14.13;;
67278;SDS011;54193;53.746;10.058;2023-02-15T09:42:10;106.53;;;19.52;;
67278;SDS011;54193;53.746;10.058;2023-02-15T09:45:15;26.30;;;7.53;;
67278;SDS011;54193;53.746;10.058;2023-02-15T09:48:13;50.65;;;14.43;;
67278;SDS011;54193;53.746;10.058;2023-02-15T09:51:28;56.92;;;14.93;;
67278;SDS011;54193;53.746;10.058;2023-02-15T10:00:38;108.00;;;22.42;;
67278;SDS011;54193;53.746;10.058;2023-02-15T10:06:57;75.13;;;18.50;;
67278;SDS011;54193;53.746;10.058;2023-02-15T10:13:00;73.07;;;19.00;;
67278;SDS011;54193;53.746;10.058;2023-02-15T10:15:51;79.82;;;17.23;;
67278;SDS011;54193;53.746;10.058;2023-02-15T10:18:54;94.95;;;21.65;;
67278;SDS011;54193;53.746;10.058;2023-02-15T10:21:50;65.95;;;16.13;;
67278;SDS011;54193;53.746;10.058;2023-02-15T10:24:43;55.47;;;15.70;;
67278;SDS011;54193;53.746;10.058;2023-02-15T10:27:45;87.30;;;21.30;;
67278;SDS011;54193;53.746;10.058;2023-02-15T10:33:39;92.50;;;21.15;;
67278;SDS011;54193;53.746;10.058;2023-02-15T10:36:46;78.97;;;19.90;;
67278;SDS011;54193;53.746;10.058;2023-02-15T10:39:49;81.97;;;19.25;;
67278;SDS011;54193;53.746;10.058;2023-02-15T10:43:06;94.40;;;22.60;;
67278;SDS011;54193;53.746;10.058;2023-02-15T10:49:19;60.30;;;16.77;;
67278;SDS011;54193;53.746;10.058;2023-02-15T10:55:24;85.57;;;22.80;;
67278;SDS011;54193;53.746;10.058;2023-02-15T11:07:38;27.77;;;8.63;;
67278;SDS011;54193;53.746;10.058;2023-02-15T11:13:27;68.15;;;18.02;;
67278;SDS011;54193;53.746;10.058;2023-02-15T11:16:21;79.50;;;20.33;;
67278;SDS011;54193;53.746;10.058;2023-02-15T11:19:21;51.95;;;15.48;;
67278;SDS011;54193;53.746;10.058;2023-02-15T11:22:12;54.65;;;15.35;;
67278;SDS011;54193;53.746;10.058;2023-02-15T11:24:58;74.18;;;18.77;;
67278;SDS011;54193;53.746;10.058;2023-02-15T11:27:46;78.13;;;20.63;;
67278;SDS011;54193;53.746;10.058;2023-02-15T11:30:39;85.72;;;20.98;;
67278;SDS011;54193;53.746;10.058;2023-02-15T11:33:30;83.97;;;22.10;;
67278;SDS011;54193;53.746;10.058;2023-02-15T11:36:22;82.80;;;22.13;;
67278;SDS011;54193;53.746;10.058;2023-02-15T11:39:14;81.32;;;20.77;;
67278;SDS011;54193;53.746;10.058;2023-02-15T11:42:04;87.00;;;23.30;;
67278;SDS011;54193;53.746;10.058;2023-02-15T11:45:06;70.72;;;19.02;;
67278;SDS011;54193;53.746;10.058;2023-02-15T11:48:13;89.45;;;24.50;;
67278;SDS011;54193;53.746;10.058;2023-02-15T11:51:00;63.13;;;17.88;;
67278;SDS011;54193;53.746;10.058;2023-02-15T11:53:48;80.25;;;22.20;;
67278;SDS011;54193;53.746;10.058;2023-02-15T11:56:35;83.70;;;23.20;;
67278;SDS011;54193;53.746;10.058;2023-02-15T11:59:31;77.90;;;20.17;;
67278;SDS011;54193;53.746;10.058;2023-02-15T12:02:21;85.45;;;22.75;;
67278;SDS011;54193;53.746;10.058;2023-02-15T12:05:14;87.67;;;24.53;;
67278;SDS011;54193;53.746;10.058;2023-02-15T12:08:09;73.25;;;20.50;;
67278;SDS011;54193;53.746;10.058;2023-02-15T12:11:07;43.00;;;13.63;;
67278;SDS011;54193;53.746;10.058;2023-02-15T12:14:00;79.35;;;21.40;;
67278;SDS011;54193;53.746;10.058;2023-02-15T12:16:49;89.60;;;23.42;;
67278;SDS011;54193;53.746;10.058;2023-02-15T12:19:37;87.30;;;24.75;;
67278;SDS011;54193;53.746;10.058;2023-02-15T12:22:27;68.50;;;19.77;;
67278;SDS011;54193;53.746;10.058;2023-02-15T12:25:22;84.17;;;24.77;;
67278;SDS011;54193;53.746;10.058;2023-02-15T12:31:31;78.07;;;20.98;;
67278;SDS011;54193;53.746;10.058;2023-02-15T12:34:22;54.67;;;17.17;;
67278;SDS011;54193;53.746;10.058;2023-02-15T12:37:17;79.68;;;21.65;;
67278;SDS011;54193;53.746;10.058;2023-02-15T12:40:20;81.90;;;21.58;;
67278;SDS011;54193;53.746;10.058;2023-02-15T12:43:12;44.67;;;14.65;;
67278;SDS011;54193;53.746;10.058;2023-02-15T12:46:21;92.13;;;25.70;;
67278;SDS011;54193;53.746;10.058;2023-02-15T12:49:19;53.55;;;16.30;;
67278;SDS011;54193;53.746;10.058;2023-02-15T12:52:22;89.75;;;22.20;;
67278;SDS011;54193;53.746;10.058;2023-02-15T12:55:32;53.77;;;19.60;;
67278;SDS011;54193;53.746;10.058;2023-02-15T12:58:18;86.10;;;21.15;;
67278;SDS011;54193;53.746;10.058;2023-02-15T13:04:13;108.57;;;29.27;;
67278;SDS011;54193;53.746;10.058;2023-02-15T13:07:02;109.90;;;28.75;;
67278;SDS011;54193;53.746;10.058;2023-02-15T13:09:48;97.88;;;27.70;;
67278;SDS011;54193;53.746;10.058;2023-02-15T13:12:35;96.45;;;26.10;;
67278;SDS011;54193;53.746;10.058;2023-02-15T13:15:39;75.72;;;20.25;;
67278;SDS011;54193;53.746;10.058;2023-02-15T13:18:30;104.88;;;29.02;;
67278;SDS011;54193;53.746;10.058;2023-02-15T13:21:20;100.60;;;28.00;;
67278;SDS011;54193;53.746;10.058;2023-02-15T13:24:43;101.37;;;27.40;;
67278;SDS011;54193;53.746;10.058;2023-02-15T13:27:35;82.93;;;23.77;;
67278;SDS011;54193;53.746;10.058;2023-02-15T13:30:24;103.60;;;30.40;;
67278;SDS011;54193;53.746;10.058;2023-02-15T13:33:31;112.93;;;31.03;;
67278;SDS011;54193;53.746;10.058;2023-02-15T13:45:39;95.82;;;28.70;;
67278;SDS011;54193;53.746;10.058;2023-02-15T13:48:47;92.82;;;27.40;;
67278;SDS011;54193;53.746;10.058;2023-02-15T13:51:51;61.10;;;18.35;;
67278;SDS011;54193;53.746;10.058;2023-02-15T13:58:14;97.57;;;28.75;;
67278;SDS011;54193;53.746;10.058;2023-02-15T14:01:28;94.60;;;28.45;;
67278;SDS011;54193;53.746;10.058;2023-02-15T14:04:25;95.97;;;28.23;;
67278;SDS011;54193;53.746;10.058;2023-02-15T14:19:47;88.03;;;27.35;;
67278;SDS011;54193;53.746;10.058;2023-02-15T14:22:40;78.40;;;23.23;;
67278;SDS011;54193;53.746;10.058;2023-02-15T14:25:30;94.43;;;29.27;;
67278;SDS011;54193;53.746;10.058;2023-02-15T14:28:28;93.72;;;28.65;;
67278;SDS011;54193;53.746;10.058;2023-02-15T14:31:46;105.50;;;31.75;;
67278;SDS011;54193;53.746;10.058;2023-02-15T14:34:55;99.10;;;29.43;;
67278;SDS011;54193;53.746;10.058;2023-02-15T14:40:41;99.25;;;31.00;;
67278;SDS011;54193;53.746;10.058;2023-02-15T14:47:33;98.85;;;29.35;;
67278;SDS011;54193;53.746;10.058;2023-02-15T14:56:17;101.70;;;31.30;;
67278;SDS011;54193;53.746;10.058;2023-02-15T14:59:14;98.60;;;30.70;;
67278;SDS011;54193;53.746;10.058;2023-02-15T15:02:07;101.20;;;31.25;;
67278;SDS011;54193;53.746;10.058;2023-02-15T15:05:18;82.17;;;24.23;;
67278;SDS011;54193;53.746;10.058;2023-02-15T15:08:19;94.50;;;30.20;;
67278;SDS011;54193;53.746;10.058;2023-02-15T15:14:57;96.65;;;29.20;;
67278;SDS011;54193;53.746;10.058;2023-02-15T15:29:08;102.95;;;30.52;;
67278;SDS011;54193;53.746;10.058;2023-02-15T15:31:54;100.32;;;30.45;;
67278;SDS011;54193;53.746;10.058;2023-02-15T15:34:47;101.87;;;31.10;;
67278;SDS011;54193;53.746;10.058;2023-02-15T15:37:50;100.32;;;28.38;;
67278;SDS011;54193;53.746;10.058;2023-02-15T15:47:20;103.22;;;30.52;;
67278;SDS011;54193;53.746;10.058;2023-02-15T15:50:20;107.43;;;30.15;;
67278;SDS011;54193;53.746;10.058;2023-02-15T15:53:06;106.13;;;29.75;;
67278;SDS011;54193;53.746;10.058;2023-02-15T15:55:59;103.83;;;30.17;;
67278;SDS011;54193;53.746;10.058;2023-02-15T15:58:50;100.25;;;30.10;;
67278;SDS011;54193;53.746;10.058;2023-02-15T16:01:42;102.63;;;30.75;;
67278;SDS011;54193;53.746;10.058;2023-02-15T16:04:30;103.93;;;29.87;;
67278;SDS011;54193;53.746;10.058;2023-02-15T16:10:05;109.85;;;31.02;;
67278;SDS011;54193;53.746;10.058;2023-02-15T16:13:04;106.15;;;31.10;;
67278;SDS011;54193;53.746;10.058;2023-02-15T16:15:53;102.65;;;29.10;;
67278;SDS011;54193;53.746;10.058;2023-02-15T16:18:40;111.10;;;32.53;;
67278;SDS011;54193;53.746;10.058;2023-02-15T16:21:33;102.50;;;30.83;;
67278;SDS011;54193;53.746;10.058;2023-02-15T16:30:31;111.30;;;31.98;;
67278;SDS011;54193;53.746;10.058;2023-02-15T16:33:19;109.60;;;29.30;;
67278;SDS011;54193;53.746;10.058;2023-02-15T16:36:06;100.30;;;26.40;;
67278;SDS011;54193;53.746;10.058;2023-02-15T16:39:09;93.80;;;26.90;;
67278;SDS011;54193;53.746;10.058;2023-02-15T16:42:02;59.80;;;18.67;;
67278;SDS011;54193;53.746;10.058;2023-02-15T16:45:34;76.57;;;22.88;;
67278;SDS011;54193;53.746;10.058;2023-02-15T16:48:00;103.82;;;28.52;;
67278;SDS011;54193;53.746;10.058;2023-02-15T16:50:51;101.88;;;29.15;;
67278;SDS011;54193;53.746;10.058;2023-02-15T16:53:40;58.33;;;19.30;;
67278;SDS011;54193;53.746;10.058;2023-02-15T16:56:29;106.40;;;31.40;;
67278;SDS011;54193;53.746;10.058;2023-02-15T16:59:19;119.10;;;35.53;;
67278;SDS011;54193;53.746;10.058;2023-02-15T17:02:24;100.27;;;29.57;;
67278;SDS011;54193;53.746;10.058;2023-02-15T17:08:05;105.13;;;31.65;;
67278;SDS011;54193;53.746;10.058;2023-02-15T17:14:10;112.40;;;36.25;;
67278;SDS011;54193;53.746;10.058;2023-02-15T17:17:00;107.80;;;34.90;;
67278;SDS011;54193;53.746;10.058;2023-02-15T17:19:51;105.55;;;31.88;;
67278;SDS011;54193;53.746;10.058;2023-02-15T17:22:39;101.23;;;33.30;;
67278;SDS011;54193;53.746;10.058;2023-02-15T17:25:31;118.10;;;38.70;;
67278;SDS011;54193;53.746;10.058;2023-02-15T17:28:22;107.53;;;35.83;;
67278;SDS011;54193;53.746;10.058;2023-02-15T17:31:12;116.30;;;38.90;;
67278;SDS011;54193;53.746;10.058;2023-02-15T17:33:59;113.68;;;36.72;;
67278;SDS011;54193;53.746;10.058;2023-02-15T17:36:58;115.20;;;38.38;;
67278;SDS011;54193;53.746;10.058;2023-02-15T17:39:44;108.15;;;34.67;;
67278;SDS011;54193;53.746;10.058;2023-02-15T17:42:30;95.35;;;29.30;;
67278;SDS011;54193;53.746;10.058;2023-02-15T17:45:15;50.22;;;18.98;;
67278;SDS011;54193;53.746;10.058;2023-02-15T17:48:04;92.03;;;30.27;;
67278;SDS011;54193;53.746;10.058;2023-02-15T17:50:51;93.63;;;31.03;;
67278;SDS011;54193;53.746;10.058;2023-02-15T17:53:37;91.07;;;31.33;;
67278;SDS011;54193;53.746;10.058;2023-02-15T17:56:22;101.53;;;33.42;;
67278;SDS011;54193;53.746;10.058;2023-02-15T17:59:08;91.97;;;32.03;;
67278;SDS011;54193;53.746;10.058;2023-02-15T18:01:56;91.82;;;29.98;;
67278;SDS011;54193;53.746;10.058;2023-02-15T18:05:00;84.35;;;28.02;;
67278;SDS011;54193;53.746;10.058;2023-02-15T18:08:08;62.40;;;21.45;;
67278;SDS011;54193;53.746;10.058;2023-02-15T18:11:15;95.80;;;32.35;;
67278;SDS011;54193;53.746;10.058;2023-02-15T18:14:19;86.82;;;29.63;;
67278;SDS011;54193;53.746;10.058;2023-02-15T18:17:05;83.97;;;27.60;;
67278;SDS011;54193;53.746;10.058;2023-02-15T18:19:57;68.33;;;23.10;;
67278;SDS011;54193;53.746;10.058;2023-02-15T18:22:43;91.50;;;26.50;;
67278;SDS011;54193;53.746;10.058;2023-02-15T18:25:30;91.05;;;29.70;;
67278;SDS011;54193;53.746;10.058;2023-02-15T18:28:16;89.80;;;29.40;;
67278;SDS011;54193;53.746;10.058;2023-02-15T18:31:01;88.75;;;30.02;;
67278;SDS011;54193;53.746;10.058;2023-02-15T18:33:48;77.03;;;24.42;;
67278;SDS011;54193;53.746;10.058;2023-02-15T18:36:42;79.03;;;26.20;;
67278;SDS011;54193;53.746;10.058;2023-02-15T18:39:36;82.55;;;26.45;;
67278;SDS011;54193;53.746;10.058;2023-02-15T18:42:25;87.03;;;28.50;;
67278;SDS011;54193;53.746;10.058;2023-02-15T18:45:14;82.63;;;27.25;;